LOWL/LNZ METAR and TAF weather

Enter ICAO airport designator
Station Type Date Time Source
LOWL METAR 2022/09/26 09:20 UTC NOAA

LOWL 260920Z AUTO 25009KT 9999 FEW013 SCT015 BKN050 13/11 Q1009 NOSIG


Station Type Date Time Source
LOWL Decoded METAR 2022/09/26 09:20 UTC NOAA

Linz / Hoersching-Flughafen, Austria (LOWL) 48-14N 014-11E 313M
Sep 26, 2022 - 05:20 AM EDT / 2022.09.26 0920 UTC
Wind: from the WSW (250 degrees) at 10 MPH (9 KT):0
Visibility: greater than 7 mile(s):0
Sky conditions: mostly cloudy
Temperature: 55 F (13 C)
Dew Point: 51 F (11 C)
Relative Humidity: 87%
Pressure (altimeter): 29.80 in. Hg (1009 hPa)
ob: LOWL 260920Z AUTO 25009KT 9999 FEW013 SCT015 BKN050 13/11 Q1009 NOSIG
cycle: 9

Station Type Date Time Source
LOWL TAF 2022/09/26 08:09 UTC NOAA

TAF TAF
AMD LOWL 260801Z 2608/2706 27007KT 9999 FEW020 BKN040 TX16/2614Z TN10/2702Z
TEMPO 2608/2609 BKN013
TEMPO 2700/2706 4000 -RA SCT010 OVC040

Example: see airport list